Hatchs Corner, New York
Current Conditions -  °F | °C
As of 12:58 PM on Friday 31 Oct 2014 (Local Time) from KGTB Reporting Station
Overcast Overcast  
Wind Chill: 45°   Ceiling: 6500
Heat Index: 45°   Visibility: 10mi
Dew Point: 35°   Wind: 2mph
Humidity: 68%   Direction: 140°SE
Pressure: 29.99"   Gusts: NA
Location:  44.3602°N, 75.0433°W
Report Text: KGTB 311658Z AUTO 14002KT 10SM OVC065 07/01 A2999 RMK AO2 SLP162 T00700014
Loading
Personal Weather Stations






























Interactive Weather Map
Tropical Storm Tracking
New forecast layout! Learn more

10-Day Weather Forecast

Advertisements
Track Severe Weather on mobile